Time;durP1;ratioP1;P1;durP2;ratioP2;P2;SDS_P1;SDS_P2;PMS_P1;PMS_P2;Temp;Humidity;BMP_temperature;BMP_pressure;BME280_temperature;BME280_humidity;BME280_pressure;Samples;Min_cycle;Max_cycle;Signal;HPM_P1;HPM_P2
2022/11/11 00:00:27;;;;;;;7.07;3.60;;;21.50;59.60;;;;;;6187355;23;20630;-87
2022/11/11 00:03:21;;;;;;;6.03;4.67;;;21.50;59.60;;;;;;6212816;23;20355;-87
2022/11/11 00:05:49;;;;;;;4.73;3.57;;;21.50;59.60;;;;;;6176831;23;20375;-87
2022/11/11 00:08:25;;;;;;;4.60;3.50;;;21.50;59.60;;;;;;6186801;23;20387;-87
2022/11/11 00:10:51;;;;;;;5.10;3.50;;;21.50;59.60;;;;;;6186870;23;20375;-87
2022/11/11 00:25:08;;;;;;;3.47;3.10;;;21.40;59.60;;;;;;6212658;23;20366;-87
2022/11/11 00:27:35;;;;;;;5.30;3.60;;;21.50;59.70;;;;;;6186854;23;20389;-87
2022/11/11 00:30:01;;;;;;;3.70;3.33;;;21.40;59.60;;;;;;6186942;23;20383;-87
2022/11/11 00:32:32;;;;;;;4.77;4.10;;;21.50;59.70;;;;;;6186863;23;20379;-87
2022/11/11 00:37:45;;;;;;;4.10;3.50;;;21.40;59.60;;;;;;6212532;23;20405;-87
2022/11/11 00:40:12;;;;;;;5.33;3.60;;;21.40;59.60;;;;;;6212495;23;20379;-87
2022/11/11 00:42:45;;;;;;;4.43;3.43;;;21.40;59.60;;;;;;6186713;23;20379;-87
2022/11/11 00:45:11;;;;;;;4.63;3.67;;;21.40;59.60;;;;;;6187010;23;20380;-86
2022/11/11 00:53:22;;;;;;;3.70;3.30;;;21.40;59.60;;;;;;6212143;23;20616;-86
2022/11/11 00:55:48;;;;;;;4.40;3.20;;;21.40;59.60;;;;;;6186961;23;20385;-86
2022/11/11 00:58:17;;;;;;;3.57;3.17;;;21.40;59.60;;;;;;6212176;23;20438;-86
2022/11/11 01:00:56;;;;;;;4.33;2.97;;;21.40;59.60;;;;;;6186677;23;20382;-86
2022/11/11 01:03:22;;;;;;;3.43;3.13;;;21.40;59.60;;;;;;6186840;23;20368;-86
2022/11/11 01:05:50;;;;;;;5.03;3.47;;;21.40;59.60;;;;;;6213039;23;20365;-86
2022/11/11 01:08:16;;;;;;;4.80;3.23;;;21.40;59.60;;;;;;6188463;23;20195;-86
2022/11/11 01:10:42;;;;;;;3.57;3.17;;;21.40;59.70;;;;;;6188409;23;20375;-86
2022/11/11 01:13:23;;;;;;;3.87;3.53;;;21.40;59.60;;;;;;6188729;23;20171;-86
2022/11/11 01:15:57;;;;;;;4.00;3.33;;;21.40;59.60;;;;;;6188174;23;20363;-87
2022/11/11 01:18:25;;;;;;;4.80;3.70;;;21.40;59.60;;;;;;6214390;23;20398;-86
2022/11/11 01:21:25;;;;;;;4.13;3.30;;;21.40;59.60;;;;;;6188365;23;20382;-87
2022/11/11 01:23:59;;;;;;;5.60;3.30;;;21.40;59.60;;;;;;6166434;23;20394;-86
2022/11/11 01:26:27;;;;;;;4.17;3.30;;;21.40;59.60;;;;;;6188618;23;20372;-86
2022/11/11 01:28:57;;;;;;;3.80;3.10;;;21.30;59.60;;;;;;6213939;23;20426;-87
2022/11/11 01:31:28;;;;;;;3.40;3.10;;;21.40;59.70;;;;;;6188137;23;20366;-87
2022/11/11 01:33:54;;;;;;;3.97;2.67;;;21.30;59.60;;;;;;6213982;23;20348;-86
2022/11/11 01:36:22;;;;;;;4.27;3.20;;;21.40;59.70;;;;;;6188325;23;20474;-87
2022/11/11 01:38:55;;;;;;;3.83;3.40;;;21.30;59.60;;;;;;6188128;23;20148;-87
2022/11/11 01:41:33;;;;;;;3.93;3.57;;;21.40;59.70;;;;;;6188521;23;20364;-87
2022/11/11 01:44:00;;;;;;;6.00;3.37;;;21.30;59.60;;;;;;6188336;23;20363;-87
2022/11/11 01:46:42;;;;;;;4.20;3.10;;;21.30;59.70;;;;;;6188503;23;20367;-87
2022/11/11 01:49:31;;;;;;;3.67;3.00;;;21.30;59.70;;;;;;6188307;23;20375;-87
2022/11/11 01:52:06;;;;;;;4.00;3.43;;;21.30;59.70;;;;;;6188918;23;20383;-87
2022/11/11 01:54:36;;;;;;;4.13;3.57;;;21.30;59.70;;;;;;6187948;23;20374;-87
2022/11/11 01:57:31;;;;;;;4.03;3.13;;;21.30;59.70;;;;;;6213618;23;20399;-87
2022/11/11 02:00:02;;;;;;;3.50;2.70;;;21.30;59.70;;;;;;6187850;23;20402;-86
2022/11/11 02:02:49;;;;;;;3.00;2.43;;;21.30;59.70;;;;;;6187844;23;20374;-86
2022/11/11 02:08:06;;;;;;;3.97;3.20;;;21.20;59.70;;;;;;6213497;23;20451;-86
2022/11/11 02:10:33;;;;;;;3.30;2.90;;;21.30;59.80;;;;;;6187677;23;20379;-87
2022/11/11 02:15:47;;;;;;;3.20;2.77;;;21.20;59.70;;;;;;6213127;23;20371;-87
2022/11/11 02:18:17;;;;;;;2.73;2.37;;;21.30;59.80;;;;;;6187396;23;20406;-87
2022/11/11 02:20:46;;;;;;;4.63;3.60;;;21.30;59.80;;;;;;6187596;23;20367;-86
2022/11/11 02:23:33;;;;;;;2.77;2.57;;;21.20;59.70;;;;;;6213314;23;20398;-86
2022/11/11 02:26:03;;;;;;;5.33;2.87;;;21.30;59.80;;;;;;6187846;23;20406;-86
2022/11/11 02:28:34;;;;;;;3.50;2.50;;;21.20;59.70;;;;;;6187837;23;20364;-86
2022/11/11 02:31:00;;;;;;;3.97;3.57;;;21.20;59.60;;;;;;6187088;23;20379;-87
2022/11/11 02:33:26;;;;;;;3.47;2.70;;;21.20;59.60;;;;;;6187331;23;20363;-87
2022/11/11 02:35:55;;;;;;;3.53;3.07;;;21.20;59.60;;;;;;6187413;23;20175;-87
2022/11/11 02:38:22;;;;;;;3.73;2.80;;;21.30;59.70;;;;;;6213378;23;20470;-86
2022/11/11 02:43:33;;;;;;;3.03;2.73;;;21.30;59.70;;;;;;6213470;23;20378;-86
2022/11/11 02:46:01;;;;;;;3.87;2.80;;;21.20;59.60;;;;;;6187356;23;20387;-87
2022/11/11 02:48:27;;;;;;;4.10;2.60;;;21.20;59.60;;;;;;6212898;23;20397;-87
2022/11/11 02:50:56;;;;;;;3.07;2.83;;;21.30;59.70;;;;;;6187385;23;20394;-87
2022/11/11 02:53:22;;;;;;;2.90;2.70;;;21.20;59.60;;;;;;6187353;23;20405;-87
2022/11/11 02:55:48;;;;;;;3.30;2.60;;;21.20;59.60;;;;;;6212811;23;20401;-87
2022/11/11 02:58:14;;;;;;;5.37;2.77;;;21.30;59.70;;;;;;6187376;23;20435;-87
2022/11/11 03:00:41;;;;;;;2.97;2.67;;;21.20;59.60;;;;;;6213021;23;20354;-87
2022/11/11 03:03:10;;;;;;;2.70;2.47;;;21.30;59.70;;;;;;6186796;23;20372;-87
2022/11/11 03:05:39;;;;;;;3.53;2.97;;;21.30;59.70;;;;;;6213006;23;20369;-87
2022/11/11 03:08:05;;;;;;;2.57;2.37;;;21.30;59.70;;;;;;6212909;23;20445;-87
2022/11/11 03:10:31;;;;;;;2.90;2.60;;;21.30;59.70;;;;;;6212759;23;20368;-87
2022/11/11 03:12:56;;;;;;;3.60;2.97;;;21.30;59.70;;;;;;6187094;23;20401;-87
2022/11/11 03:15:22;;;;;;;2.50;2.30;;;21.30;59.70;;;;;;6187577;23;20154;-87
2022/11/11 03:17:48;;;;;;;3.07;2.57;;;21.30;59.70;;;;;;6186991;23;20156;-87
2022/11/11 03:23:11;;;;;;;2.77;2.57;;;21.20;59.60;;;;;;6212936;23;20127;-87
2022/11/11 03:25:46;;;;;;;2.37;2.17;;;21.20;59.60;;;;;;6212654;23;20427;-87
2022/11/11 03:28:31;;;;;;;3.30;3.00;;;21.20;59.60;;;;;;6186775;23;20374;-86
2022/11/11 03:30:58;;;;;;;2.73;2.30;;;21.20;59.70;;;;;;6186341;23;20431;-86
2022/11/11 03:33:24;;;;;;;2.53;2.33;;;21.20;59.70;;;;;;6186870;23;20379;-86
2022/11/11 03:35:50;;;;;;;2.97;2.50;;;21.20;59.60;;;;;;6187126;23;20379;-86
2022/11/11 03:38:22;;;;;;;2.97;2.77;;;21.20;59.70;;;;;;6186703;23;20176;-86
2022/11/11 03:40:57;;;;;;;2.60;2.40;;;21.20;59.60;;;;;;6212692;23;20156;-86
2022/11/11 03:43:28;;;;;;;2.50;2.30;;;21.20;59.70;;;;;;6187096;23;20381;-86
2022/11/11 03:45:58;;;;;;;2.90;2.30;;;21.20;59.60;;;;;;6186616;23;20370;-86
2022/11/11 03:48:31;;;;;;;2.70;2.50;;;21.20;59.60;;;;;;6212856;23;20363;-88
2022/11/11 03:50:58;;;;;;;2.70;2.30;;;21.20;59.70;;;;;;6186980;23;20390;-87
2022/11/11 03:53:23;;;;;;;2.50;2.20;;;21.20;59.70;;;;;;6186360;23;20379;-87
2022/11/11 03:55:50;;;;;;;3.43;2.57;;;21.20;59.60;;;;;;6212313;23;20147;-87
2022/11/11 03:58:18;;;;;;;2.90;2.50;;;21.20;59.70;;;;;;6186539;23;20190;-87
2022/11/11 04:00:47;;;;;;;3.53;2.80;;;21.20;59.70;;;;;;6186860;23;20405;-87
2022/11/11 04:11:41;;;;;;;2.73;2.30;;;21.20;59.70;;;;;;6212815;23;20379;-88
2022/11/11 04:16:56;;;;;;;3.17;2.73;;;21.20;59.70;;;;;;6212379;23;20421;-87
2022/11/11 04:22:06;;;;;;;3.00;2.70;;;21.10;59.60;;;;;;6212681;23;20423;-87
2022/11/11 04:27:18;;;;;;;4.20;2.60;;;21.20;59.70;;;;;;6212630;23;20346;-85
2022/11/11 04:29:46;;;;;;;2.90;2.60;;;21.20;59.70;;;;;;6186578;23;20410;-86
2022/11/11 04:35:01;;;;;;;3.50;2.60;;;21.10;59.70;;;;;;6212502;23;20366;-86
2022/11/11 04:37:31;;;;;;;2.93;2.40;;;21.10;59.70;;;;;;6212606;23;20430;-86
2022/11/11 04:42:41;;;;;;;2.87;2.27;;;21.10;59.80;;;;;;6214519;23;20374;-86
2022/11/11 04:45:29;;;;;;;3.17;2.40;;;21.10;59.70;;;;;;6188678;23;20399;-86
2022/11/11 04:47:58;;;;;;;3.63;2.90;;;21.10;59.70;;;;;;6188736;23;20152;-85
2022/11/11 04:50:34;;;;;;;3.30;3.00;;;21.10;59.70;;;;;;6189005;23;20355;-86
2022/11/11 04:53:07;;;;;;;3.40;2.50;;;21.00;59.70;;;;;;6188751;23;20374;-86
2022/11/11 04:58:19;;;;;;;3.00;2.80;;;21.00;59.70;;;;;;6214158;23;20739;-86
2022/11/11 05:00:45;;;;;;;3.20;2.90;;;21.00;59.70;;;;;;6213967;23;20347;-86
2022/11/11 05:03:15;;;;;;;3.30;2.73;;;21.00;59.80;;;;;;6214164;23;20378;-85
2022/11/11 05:11:13;;;;;;;3.43;2.80;;;21.00;59.80;;;;;;6214195;23;20358;-86
2022/11/11 05:22:43;;;;;;;2.40;2.20;;;20.90;59.80;;;;;;6213968;23;20385;-86
2022/11/11 05:25:24;;;;;;;2.77;2.40;;;20.90;59.80;;;;;;6188001;23;20417;-85
2022/11/11 05:27:52;;;;;;;2.93;2.07;;;20.90;59.80;;;;;;6188269;23;20431;-85
2022/11/11 05:30:20;;;;;;;2.97;2.53;;;21.00;59.90;;;;;;6213836;23;20367;-85
2022/11/11 05:33:06;;;;;;;2.80;2.20;;;20.90;59.80;;;;;;6188127;23;20375;-85
2022/11/11 05:35:32;;;;;;;2.50;2.30;;;21.00;59.90;;;;;;6186680;23;20381;-86
2022/11/11 05:38:22;;;;;;;3.10;2.80;;;21.00;59.90;;;;;;6188363;23;20414;-86
2022/11/11 05:44:13;;;;;;;3.50;2.50;;;21.00;59.80;;;;;;6214078;23;20382;-85
2022/11/11 05:46:42;;;;;;;4.27;1.90;;;21.00;59.90;;;;;;6187838;23;20374;-85
2022/11/11 05:49:35;;;;;;;3.80;2.57;;;21.00;59.90;;;;;;6188185;23;20375;-85
2022/11/11 05:52:11;;;;;;;2.83;2.37;;;21.00;59.90;;;;;;6183858;23;20367;-86
2022/11/11 05:54:39;;;;;;;2.70;2.50;;;21.00;59.80;;;;;;6188153;23;20693;-86
2022/11/11 05:57:07;;;;;;;3.37;2.17;;;21.00;59.80;;;;;;6187505;23;20426;-87
2022/11/11 05:59:33;;;;;;;3.23;2.40;;;21.00;59.80;;;;;;6187827;23;20359;-86
2022/11/11 06:02:01;;;;;;;3.07;2.77;;;21.00;59.80;;;;;;6213415;23;20382;-86
2022/11/11 06:04:27;;;;;;;2.37;2.00;;;21.00;59.80;;;;;;6163125;23;20155;-85
2022/11/11 06:06:53;;;;;;;2.67;2.40;;;21.00;59.80;;;;;;6188143;23;20371;-86
2022/11/11 06:09:43;;;;;;;2.77;2.20;;;21.00;59.80;;;;;;6187952;23;20401;-86
2022/11/11 06:13:00;;;;;;;3.30;2.73;;;21.00;59.80;;;;;;6187411;23;20418;-86
2022/11/11 06:15:23;;;;;;;2.90;2.33;;;21.00;59.70;;;;;;6213528;23;20402;-87
2022/11/11 06:18:11;;;;;;;;;;;;;;;;;;;;;
2022/11/11 06:21:23;;;;;;;2.43;2.20;;;21.00;59.80;;;;;;6213981;23;20362;-85
2022/11/11 06:24:21;;;;;;;2.97;2.70;;;21.00;59.80;;;;;;6186755;23;20413;-85
2022/11/11 06:27:33;;;;;;;;;;;;;;;;;;;;;
2022/11/11 06:33:35;;;;;;;2.63;2.43;;;21.00;59.80;;;;;;6213767;23;20366;-86
2022/11/11 06:36:05;;;;;;;2.47;2.27;;;21.00;59.80;;;;;;6186999;23;20461;-85
2022/11/11 06:39:24;;;;;;;2.83;2.50;;;21.00;59.80;;;;;;6161904;23;20447;-85
2022/11/11 06:42:15;;;;;;;4.83;2.67;;;21.00;59.80;;;;;;6185509;23;20372;-85
2022/11/11 06:48:42;;;;;;;3.37;2.67;;;21.00;59.80;;;;;;6213323;23;20335;-85
2022/11/11 07:08:43;;;;;;;;;;;;;;;;;;;;;
2022/11/11 07:11:58;;;;;;;;;;;;;;;;;;;;;
2022/11/11 08:15:49;;;;;;;;;;;;;;;;;;;;;
2022/11/11 08:29:09;;;;;;;2.30;2.10;;;21.40;59.60;;;;;;6131298;23;20341;-85
2022/11/11 08:48:29;;;;;;;2.57;2.03;;;21.40;59.70;;;;;;6220831;22;20429;-85
2022/11/11 08:58:35;;;;;;;1.70;1.57;;;21.40;59.70;;;;;;6037905;23;20389;-84
2022/11/11 09:08:32;;;;;;;3.37;2.30;;;21.40;59.70;;;;;;6095078;23;20407;-84
2022/11/11 09:14:48;;;;;;;2.30;2.00;;;21.40;59.70;;;;;;6037315;23;20367;-85
2022/11/11 09:17:34;;;;;;;2.77;2.40;;;21.40;59.70;;;;;;6037341;23;20388;-85
2022/11/11 09:40:57;;;;;;;;;;;;;;;;;;;;;
2022/11/11 09:44:15;;;;;;;;;;;;;;;;;;;;;
2022/11/11 09:47:33;;;;;;;1.93;1.70;;;21.40;59.70;;;;;;5926128;24;20364;-84
2022/11/11 10:28:24;;;;;;;;;;;;;;;;;;;;;
2022/11/11 10:42:02;;;;;;;;;;;;;;;;;;;;;
2022/11/11 10:48:36;;;;;;;2.50;2.03;;;21.40;59.80;;;;;;5740161;25;20393;-83
2022/11/11 11:01:06;;;;;;;1.93;1.80;;;21.40;59.80;;;;;;5954062;23;20415;-84
2022/11/11 11:03:55;;;;;;;2.33;1.83;;;21.30;59.70;;;;;;5953067;24;20430;-83
2022/11/11 11:06:33;;;;;;;2.70;1.90;;;21.40;59.80;;;;;;5953545;24;20359;-83
2022/11/11 11:09:32;;;;;;;;;;;;;;;;;;;;;
2022/11/11 11:16:04;;;;;;;2.03;1.80;;;21.40;59.70;;;;;;6183567;23;20351;-83
2022/11/11 11:22:01;;;;;;;2.00;1.80;;;21.40;59.70;;;;;;6094025;23;20423;-84
2022/11/11 11:25:33;;;;;;;3.77;2.40;;;21.40;59.70;;;;;;6093690;23;20405;-86
2022/11/11 11:41:39;;;;;;;6.50;2.90;;;21.40;59.80;;;;;;5924792;24;20384;-85
2022/11/11 13:44:50;;;;;;;;;;;;;;;;;;;;;
2022/11/11 15:13:23;;;;;;;;;;;;;;;;;;;;;
2022/11/11 15:19:48;;;;;;;8.60;3.80;;;21.50;59.80;;;;;;5725857;25;20391;-85
2022/11/11 15:22:50;;;;;;;8.40;4.20;;;21.50;59.80;;;;;;5827826;24;20411;-86
2022/11/11 15:26:19;;;;;;;;;;;;;;;;;;;;;
2022/11/11 15:40:04;;;;;;;;;;;;;;;;;;;;;
2022/11/11 15:43:09;;;;;;;6.20;3.57;;;21.40;59.80;;;;;;5896993;24;20377;-85
2022/11/11 16:21:03;;;;;;;;;;;;;;;;;;;;;
2022/11/11 16:23:56;;;;;;;8.40;3.97;;;21.40;59.80;;;;;;5657088;25;20808;-84
2022/11/11 16:26:25;;;;;;;6.70;3.90;;;21.40;59.80;;;;;;5687485;25;20399;-86
2022/11/11 16:29:21;;;;;;;;;;;;;;;;;;;;;
2022/11/11 16:32:15;;;;;;;;;;;;;;;;;;;;;
2022/11/11 16:34:49;;;;;;;7.03;4.20;;;21.40;59.80;;;;;;5794039;24;20385;-85
2022/11/11 16:38:04;;;;;;;6.27;4.20;;;21.50;59.80;;;;;;5793129;24;20412;-86
2022/11/11 16:41:10;;;;;;;;;;;;;;;;;;;;;
2022/11/11 16:47:24;;;;;;;5.00;3.47;;;21.50;59.80;;;;;;5924104;24;20382;-85
2022/11/11 16:50:15;;;;;;;9.30;3.80;;;21.40;59.70;;;;;;5951999;24;20403;-85
2022/11/11 16:53:03;;;;;;;5.80;3.47;;;21.40;59.70;;;;;;5954281;24;20482;-85
2022/11/11 16:55:52;;;;;;;7.30;4.50;;;21.40;59.70;;;;;;5953841;24;20386;-86
2022/11/11 16:58:39;;;;;;;6.17;3.80;;;21.50;59.80;;;;;;5951803;24;20395;-84
2022/11/11 17:01:21;;;;;;;6.23;3.83;;;21.40;59.70;;;;;;5954480;24;20463;-85
2022/11/11 17:04:08;;;;;;;5.57;3.73;;;21.40;59.70;;;;;;5953693;24;20415;-85
2022/11/11 17:13:39;;;;;;;4.63;2.80;;;21.40;59.60;;;;;;5954344;24;20391;-85
2022/11/11 17:16:54;;;;;;;;;;;;;;;;;;;;;
2022/11/11 17:19:45;;;;;;;6.83;4.03;;;21.40;59.80;;;;;;6008863;23;20359;-84
2022/11/11 17:22:23;;;;;;;5.40;3.50;;;21.40;59.70;;;;;;6064046;23;20379;-83
2022/11/11 17:25:21;;;;;;;6.67;3.40;;;21.40;59.70;;;;;;6042503;23;20419;-84
2022/11/11 17:28:05;;;;;;;;;;;;;;;;;;;;;
2022/11/11 17:30:35;;;;;;;4.07;2.60;;;21.40;59.70;;;;;;6009582;24;20699;-83
2022/11/11 17:33:13;;;;;;;6.60;3.20;;;21.40;59.70;;;;;;5985979;24;20393;-84
2022/11/11 17:35:56;;;;;;;5.17;3.47;;;21.40;59.70;;;;;;6038594;23;20378;-85
2022/11/11 17:38:57;;;;;;;6.03;3.50;;;21.40;59.70;;;;;;6089420;23;20389;-84
2022/11/11 17:48:46;;;;;;;;;;;;;;;;;;;;;
2022/11/11 17:51:39;;;;;;;4.73;3.40;;;21.40;59.70;;;;;;6037594;23;20364;-84
2022/11/11 17:54:26;;;;;;;7.17;3.70;;;21.40;59.70;;;;;;6013857;23;20376;-84
2022/11/11 17:57:38;;;;;;;10.57;2.90;;;21.40;59.70;;;;;;6017309;23;20385;-83
2022/11/11 18:01:17;;;;;;;;;;;;;;;;;;;;;
2022/11/11 18:11:07;;;;;;;6.33;3.30;;;21.40;59.80;;;;;;6007452;24;20441;-85
2022/11/11 18:14:01;;;;;;;;;;;;;;;;;;;;;
2022/11/11 18:17:05;;;;;;;5.70;3.10;;;21.30;59.80;;;;;;6008685;24;20695;-84
2022/11/11 18:20:10;;;;;;;5.90;3.60;;;21.40;59.80;;;;;;5985116;24;20373;-84
2022/11/11 18:28:55;;;;;;;5.00;3.23;;;21.30;59.70;;;;;;5980526;23;20358;-84
2022/11/11 18:31:36;;;;;;;5.13;3.10;;;21.40;59.80;;;;;;5980728;24;20378;-83
2022/11/11 18:34:31;;;;;;;7.30;3.30;;;21.40;59.80;;;;;;5980606;24;20393;-83
2022/11/11 18:37:24;;;;;;;5.17;2.73;;;21.40;59.80;;;;;;5950589;24;20383;-84
2022/11/11 18:43:59;;;;;;;;;;;;;;;;;;;;;
2022/11/11 18:47:11;;;;;;;;;;;;;;;;;;;;;
2022/11/11 19:16:31;;;;;;;3.90;2.80;;;21.40;59.80;;;;;;5980163;24;20381;-84
2022/11/11 19:23:00;;;;;;;6.17;3.50;;;21.40;59.80;;;;;;6008462;24;20345;-84
2022/11/11 19:32:46;;;;;;;5.20;3.20;;;21.40;59.80;;;;;;5980248;24;20381;-85
2022/11/11 19:36:30;;;;;;;;;;;;;;;;;;;;;
2022/11/11 19:43:38;;;;;;;3.60;2.77;;;21.40;59.70;;;;;;5942614;24;20393;-84
2022/11/11 20:01:07;;;;;;;;;;;;;;;;;;;;;
2022/11/11 20:14:32;;;;;;;4.57;2.67;;;21.40;59.70;;;;;;5817128;24;20355;-85
2022/11/11 20:28:07;;;;;;;;;;;;;;;;;;;;;
2022/11/11 20:45:05;;;;;;;5.90;3.13;;;21.30;59.80;;;;;;5818854;24;20477;-84
2022/11/11 20:51:41;;;;;;;;;;;;;;;;;;;;;
2022/11/11 21:01:49;;;;;;;4.60;3.10;;;21.30;59.80;;;;;;5882866;24;20372;-84
2022/11/11 21:05:04;;;;;;;;;;;;;;;;;;;;;
2022/11/11 21:24:37;;;;;;;3.63;2.83;;;21.30;59.80;;;;;;6066194;23;20418;-84
2022/11/11 21:28:04;;;;;;;;;;;;;;;;;;;;;
2022/11/11 21:34:21;;;;;;;4.00;2.80;;;21.30;59.80;;;;;;6066047;23;20362;-84
2022/11/11 21:44:17;;;;;;;4.53;2.63;;;21.30;59.80;;;;;;6065619;23;20413;-83
2022/11/11 21:50:54;;;;;;;;;;;;;;;;;;;;;
2022/11/11 22:04:36;;;;;;;4.23;2.97;;;21.20;59.80;;;;;;6122985;23;20440;-85
2022/11/11 22:10:53;;;;;;;3.97;2.70;;;21.20;59.80;;;;;;6093934;23;20378;-83
2022/11/11 22:14:01;;;;;;;;;;;;;;;;;;;;;
2022/11/11 22:23:18;;;;;;;3.63;2.60;;;21.20;59.80;;;;;;6066135;23;20367;-83
2022/11/11 22:26:11;;;;;;;4.50;3.10;;;21.20;59.90;;;;;;6044575;23;20411;-84
2022/11/11 22:28:52;;;;;;;4.50;2.80;;;21.20;59.90;;;;;;6065494;23;20364;-84
2022/11/11 22:32:36;;;;;;;;;;;;;;;;;;;;;
2022/11/11 22:35:44;;;;;;;4.70;3.10;;;21.20;59.90;;;;;;6065086;23;20375;-84
2022/11/11 22:39:05;;;;;;;;;;;;;;;;;;;;;
2022/11/11 22:41:55;;;;;;;3.33;2.50;;;21.20;59.90;;;;;;6065223;23;20382;-84
2022/11/11 22:49:23;;;;;;;2.50;2.13;;;21.20;59.90;;;;;;5980191;24;20394;-84
2022/11/11 22:52:12;;;;;;;;;;;;;;;;;;;;;
2022/11/11 22:55:24;;;;;;;3.93;3.07;;;21.20;59.90;;;;;;6036512;23;20383;-84
2022/11/11 22:58:17;;;;;;;4.87;2.67;;;21.20;59.90;;;;;;6017462;23;20392;-84
2022/11/11 23:01:35;;;;;;;3.70;2.70;;;21.20;59.80;;;;;;6028109;23;20436;-84
2022/11/11 23:17:26;;;;;;;2.40;2.20;;;21.20;59.80;;;;;;6036133;23;20382;-84
2022/11/11 23:43:21;;;;;;;;;;;;;;;;;;;;;
2022/11/11 23:46:13;;;;;;;;;;;;;;;;;;;;;
2022/11/11 23:56:05;;;;;;;3.63;2.40;;;21.20;59.70;;;;;;6183325;23;20364;-85
2022/11/11 23:59:11;;;;;;;;;;;;;;;;;;;;;
